sensor_id;sensor_type;location;lat;lon;timestamp;temperature;humidity
7646;DHT22;3864;48.180;14.178;2024-01-27T00:02:19;5.60;99.90
7646;DHT22;3864;48.180;14.178;2024-01-27T00:04:46;5.50;99.90
7646;DHT22;3864;48.180;14.178;2024-01-27T00:07:14;5.50;99.90
7646;DHT22;3864;48.180;14.178;2024-01-27T00:09:41;5.50;99.90
7646;DHT22;3864;48.180;14.178;2024-01-27T00:12:08;5.40;99.90
7646;DHT22;3864;48.180;14.178;2024-01-27T00:14:38;5.40;99.90
7646;DHT22;3864;48.180;14.178;2024-01-27T00:17:06;5.40;99.90
7646;DHT22;3864;48.180;14.178;2024-01-27T00:19:35;5.40;99.90
7646;DHT22;3864;48.180;14.178;2024-01-27T00:22:02;5.40;99.90
7646;DHT22;3864;48.180;14.178;2024-01-27T00:24:31;5.30;99.90
7646;DHT22;3864;48.180;14.178;2024-01-27T00:26:58;5.30;99.90
7646;DHT22;3864;48.180;14.178;2024-01-27T00:29:25;5.30;99.90
7646;DHT22;3864;48.180;14.178;2024-01-27T00:31:58;5.40;99.90
7646;DHT22;3864;48.180;14.178;2024-01-27T00:34:25;5.40;99.90
7646;DHT22;3864;48.180;14.178;2024-01-27T00:36:56;5.40;99.90
7646;DHT22;3864;48.180;14.178;2024-01-27T00:39:23;5.50;99.90
7646;DHT22;3864;48.180;14.178;2024-01-27T00:41:51;5.50;99.90
7646;DHT22;3864;48.180;14.178;2024-01-27T00:44:20;5.40;99.90
7646;DHT22;3864;48.180;14.178;2024-01-27T00:46:47;5.30;99.90
7646;DHT22;3864;48.180;14.178;2024-01-27T00:49:15;5.30;99.90
7646;DHT22;3864;48.180;14.178;2024-01-27T00:51:42;5.20;99.90
7646;DHT22;3864;48.180;14.178;2024-01-27T00:54:11;5.20;99.90
7646;DHT22;3864;48.180;14.178;2024-01-27T00:56:38;5.00;99.90
7646;DHT22;3864;48.180;14.178;2024-01-27T00:59:05;5.00;99.90
7646;DHT22;3864;48.180;14.178;2024-01-27T01:01:32;5.00;99.90
7646;DHT22;3864;48.180;14.178;2024-01-27T01:03:59;4.90;99.90
7646;DHT22;3864;48.180;14.178;2024-01-27T01:06:32;4.80;99.90
7646;DHT22;3864;48.180;14.178;2024-01-27T01:09:01;4.80;99.90
7646;DHT22;3864;48.180;14.178;2024-01-27T01:11:33;4.70;99.90
7646;DHT22;3864;48.180;14.178;2024-01-27T01:14:03;4.70;99.90
7646;DHT22;3864;48.180;14.178;2024-01-27T01:16:31;4.60;99.90
7646;DHT22;3864;48.180;14.178;2024-01-27T01:19:00;4.60;99.90
7646;DHT22;3864;48.180;14.178;2024-01-27T01:21:30;4.60;99.90
7646;DHT22;3864;48.180;14.178;2024-01-27T01:24:00;4.50;99.90
7646;DHT22;3864;48.180;14.178;2024-01-27T01:26:28;4.50;99.90
7646;DHT22;3864;48.180;14.178;2024-01-27T01:28:57;4.50;99.90
7646;DHT22;3864;48.180;14.178;2024-01-27T01:31:31;4.60;99.90
7646;DHT22;3864;48.180;14.178;2024-01-27T01:34:01;4.50;99.90
7646;DHT22;3864;48.180;14.178;2024-01-27T01:36:31;4.60;99.90
7646;DHT22;3864;48.180;14.178;2024-01-27T01:39:01;4.50;99.90
7646;DHT22;3864;48.180;14.178;2024-01-27T01:41:28;4.50;99.90
7646;DHT22;3864;48.180;14.178;2024-01-27T01:44:04;4.40;99.90
7646;DHT22;3864;48.180;14.178;2024-01-27T01:46:32;4.30;99.90
7646;DHT22;3864;48.180;14.178;2024-01-27T01:49:05;4.30;99.90
7646;DHT22;3864;48.180;14.178;2024-01-27T01:51:36;4.20;99.90
7646;DHT22;3864;48.180;14.178;2024-01-27T01:54:11;4.20;99.90
7646;DHT22;3864;48.180;14.178;2024-01-27T01:56:39;4.10;99.90
7646;DHT22;3864;48.180;14.178;2024-01-27T01:59:14;4.10;99.90
7646;DHT22;3864;48.180;14.178;2024-01-27T02:01:42;4.00;99.90
7646;DHT22;3864;48.180;14.178;2024-01-27T02:07:01;4.00;99.90
7646;DHT22;3864;48.180;14.178;2024-01-27T02:09:31;4.00;99.90
7646;DHT22;3864;48.180;14.178;2024-01-27T02:11:58;4.10;99.90
7646;DHT22;3864;48.180;14.178;2024-01-27T02:14:28;4.20;99.90
7646;DHT22;3864;48.180;14.178;2024-01-27T02:16:56;4.20;99.90
7646;DHT22;3864;48.180;14.178;2024-01-27T02:19:25;4.30;99.90
7646;DHT22;3864;48.180;14.178;2024-01-27T02:21:53;4.30;99.90
7646;DHT22;3864;48.180;14.178;2024-01-27T02:24:24;4.30;99.90
7646;DHT22;3864;48.180;14.178;2024-01-27T02:26:53;4.30;99.90
7646;DHT22;3864;48.180;14.178;2024-01-27T02:29:20;4.40;99.90
7646;DHT22;3864;48.180;14.178;2024-01-27T02:31:49;4.40;99.90
7646;DHT22;3864;48.180;14.178;2024-01-27T02:34:18;4.40;99.90
7646;DHT22;3864;48.180;14.178;2024-01-27T02:36:57;4.50;99.90
7646;DHT22;3864;48.180;14.178;2024-01-27T02:39:26;4.50;99.90
7646;DHT22;3864;48.180;14.178;2024-01-27T02:41:54;4.50;99.90
7646;DHT22;3864;48.180;14.178;2024-01-27T02:44:21;4.60;99.90
7646;DHT22;3864;48.180;14.178;2024-01-27T02:46:52;4.60;99.90
7646;DHT22;3864;48.180;14.178;2024-01-27T02:49:26;4.60;99.90
7646;DHT22;3864;48.180;14.178;2024-01-27T02:51:53;4.70;99.90
7646;DHT22;3864;48.180;14.178;2024-01-27T02:54:21;4.70;99.90
7646;DHT22;3864;48.180;14.178;2024-01-27T02:56:50;4.70;99.90
7646;DHT22;3864;48.180;14.178;2024-01-27T02:59:19;4.70;99.90
7646;DHT22;3864;48.180;14.178;2024-01-27T03:01:49;4.60;99.90
7646;DHT22;3864;48.180;14.178;2024-01-27T03:04:22;4.50;99.90
7646;DHT22;3864;48.180;14.178;2024-01-27T03:07:07;4.50;99.90
7646;DHT22;3864;48.180;14.178;2024-01-27T03:09:36;4.40;99.90
7646;DHT22;3864;48.180;14.178;2024-01-27T03:12:20;4.40;99.90
7646;DHT22;3864;48.180;14.178;2024-01-27T03:14:54;4.30;99.90
7646;DHT22;3864;48.180;14.178;2024-01-27T03:17:22;4.20;99.90
7646;DHT22;3864;48.180;14.178;2024-01-27T03:19:57;4.20;99.90
7646;DHT22;3864;48.180;14.178;2024-01-27T03:22:25;4.00;99.90
7646;DHT22;3864;48.180;14.178;2024-01-27T03:25:00;4.00;99.90
7646;DHT22;3864;48.180;14.178;2024-01-27T03:27:29;3.90;99.90
7646;DHT22;3864;48.180;14.178;2024-01-27T03:29:59;4.00;99.90
7646;DHT22;3864;48.180;14.178;2024-01-27T03:32:47;3.90;99.90
7646;DHT22;3864;48.180;14.178;2024-01-27T03:35:14;3.80;99.90
7646;DHT22;3864;48.180;14.178;2024-01-27T03:37:51;3.70;99.90
7646;DHT22;3864;48.180;14.178;2024-01-27T03:40:21;3.70;99.90
7646;DHT22;3864;48.180;14.178;2024-01-27T03:42:59;3.80;99.90
7646;DHT22;3864;48.180;14.178;2024-01-27T03:45:36;3.80;99.90
7646;DHT22;3864;48.180;14.178;2024-01-27T03:48:04;3.80;99.90
7646;DHT22;3864;48.180;14.178;2024-01-27T03:50:31;3.80;99.90
7646;DHT22;3864;48.180;14.178;2024-01-27T03:52:59;3.90;99.90
7646;DHT22;3864;48.180;14.178;2024-01-27T03:55:26;3.90;99.90
7646;DHT22;3864;48.180;14.178;2024-01-27T03:57:53;4.00;99.90
7646;DHT22;3864;48.180;14.178;2024-01-27T04:00:25;4.00;99.90
7646;DHT22;3864;48.180;14.178;2024-01-27T04:02:59;4.00;99.90
7646;DHT22;3864;48.180;14.178;2024-01-27T04:05:29;4.00;99.90
7646;DHT22;3864;48.180;14.178;2024-01-27T04:08:04;3.90;99.90
7646;DHT22;3864;48.180;14.178;2024-01-27T04:10:36;3.90;99.90
7646;DHT22;3864;48.180;14.178;2024-01-27T04:13:25;4.00;99.90
7646;DHT22;3864;48.180;14.178;2024-01-27T04:15:55;4.00;99.90
7646;DHT22;3864;48.180;14.178;2024-01-27T04:18:28;4.00;99.90
7646;DHT22;3864;48.180;14.178;2024-01-27T04:20:57;4.00;99.90
7646;DHT22;3864;48.180;14.178;2024-01-27T04:23:24;4.00;99.90
7646;DHT22;3864;48.180;14.178;2024-01-27T04:25:54;4.00;99.90
7646;DHT22;3864;48.180;14.178;2024-01-27T04:28:21;4.00;99.90
7646;DHT22;3864;48.180;14.178;2024-01-27T04:30:49;4.00;99.90
7646;DHT22;3864;48.180;14.178;2024-01-27T04:33:26;4.00;99.90
7646;DHT22;3864;48.180;14.178;2024-01-27T04:35:54;4.00;99.90
7646;DHT22;3864;48.180;14.178;2024-01-27T04:38:21;4.00;99.90
7646;DHT22;3864;48.180;14.178;2024-01-27T04:40:58;3.90;99.90
7646;DHT22;3864;48.180;14.178;2024-01-27T04:43:26;4.00;99.90
7646;DHT22;3864;48.180;14.178;2024-01-27T04:45:54;4.00;99.90
7646;DHT22;3864;48.180;14.178;2024-01-27T04:48:41;4.00;99.90
7646;DHT22;3864;48.180;14.178;2024-01-27T04:51:08;4.00;99.90
7646;DHT22;3864;48.180;14.178;2024-01-27T04:53:35;4.00;99.90
7646;DHT22;3864;48.180;14.178;2024-01-27T04:56:05;4.00;99.90
7646;DHT22;3864;48.180;14.178;2024-01-27T04:58:42;4.10;99.90
7646;DHT22;3864;48.180;14.178;2024-01-27T05:01:10;4.10;99.90
7646;DHT22;3864;48.180;14.178;2024-01-27T05:03:41;4.20;99.90
7646;DHT22;3864;48.180;14.178;2024-01-27T05:06:08;4.20;99.90
7646;DHT22;3864;48.180;14.178;2024-01-27T05:08:36;4.30;99.90
7646;DHT22;3864;48.180;14.178;2024-01-27T05:11:07;4.30;99.90
7646;DHT22;3864;48.180;14.178;2024-01-27T05:13:34;4.20;99.90
7646;DHT22;3864;48.180;14.178;2024-01-27T05:16:03;4.20;99.90
7646;DHT22;3864;48.180;14.178;2024-01-27T05:18:41;4.20;99.90
7646;DHT22;3864;48.180;14.178;2024-01-27T05:21:11;4.10;99.90
7646;DHT22;3864;48.180;14.178;2024-01-27T05:23:42;4.10;99.90
7646;DHT22;3864;48.180;14.178;2024-01-27T05:26:09;4.00;99.90
7646;DHT22;3864;48.180;14.178;2024-01-27T05:28:37;3.90;99.90
7646;DHT22;3864;48.180;14.178;2024-01-27T05:31:07;3.90;99.90
7646;DHT22;3864;48.180;14.178;2024-01-27T05:33:37;3.80;99.90
7646;DHT22;3864;48.180;14.178;2024-01-27T05:36:14;3.80;99.90
7646;DHT22;3864;48.180;14.178;2024-01-27T05:38:42;3.70;99.90
7646;DHT22;3864;48.180;14.178;2024-01-27T05:41:08;3.60;99.90
7646;DHT22;3864;48.180;14.178;2024-01-27T05:43:37;3.50;99.90
7646;DHT22;3864;48.180;14.178;2024-01-27T05:46:05;3.40;99.90
7646;DHT22;3864;48.180;14.178;2024-01-27T05:48:32;3.40;99.90
7646;DHT22;3864;48.180;14.178;2024-01-27T05:51:00;3.30;99.90
7646;DHT22;3864;48.180;14.178;2024-01-27T05:53:29;3.30;99.90
7646;DHT22;3864;48.180;14.178;2024-01-27T05:55:56;3.30;99.90
7646;DHT22;3864;48.180;14.178;2024-01-27T05:58:23;3.30;99.90
7646;DHT22;3864;48.180;14.178;2024-01-27T06:00:53;3.20;99.90
7646;DHT22;3864;48.180;14.178;2024-01-27T06:03:21;3.20;99.90
7646;DHT22;3864;48.180;14.178;2024-01-27T06:05:48;3.20;99.90
7646;DHT22;3864;48.180;14.178;2024-01-27T06:08:16;3.20;99.90
7646;DHT22;3864;48.180;14.178;2024-01-27T06:10:47;3.20;99.90
7646;DHT22;3864;48.180;14.178;2024-01-27T06:13:14;3.10;99.90
7646;DHT22;3864;48.180;14.178;2024-01-27T06:15:52;3.10;99.90
7646;DHT22;3864;48.180;14.178;2024-01-27T06:18:19;3.10;99.90
7646;DHT22;3864;48.180;14.178;2024-01-27T06:20:47;3.10;99.90
7646;DHT22;3864;48.180;14.178;2024-01-27T06:23:14;3.10;99.90
7646;DHT22;3864;48.180;14.178;2024-01-27T06:25:42;3.10;99.90
7646;DHT22;3864;48.180;14.178;2024-01-27T06:28:23;3.10;99.90
7646;DHT22;3864;48.180;14.178;2024-01-27T06:30:56;3.10;99.90
7646;DHT22;3864;48.180;14.178;2024-01-27T06:33:25;3.10;99.90
7646;DHT22;3864;48.180;14.178;2024-01-27T06:35:53;3.10;99.90
7646;DHT22;3864;48.180;14.178;2024-01-27T06:38:20;3.10;99.90
7646;DHT22;3864;48.180;14.178;2024-01-27T06:40:50;3.00;99.90
7646;DHT22;3864;48.180;14.178;2024-01-27T06:43:22;3.00;99.90
7646;DHT22;3864;48.180;14.178;2024-01-27T06:45:49;2.90;99.90
7646;DHT22;3864;48.180;14.178;2024-01-27T06:48:20;3.00;99.90
7646;DHT22;3864;48.180;14.178;2024-01-27T06:50:47;3.00;99.90
7646;DHT22;3864;48.180;14.178;2024-01-27T06:53:15;3.00;99.90
7646;DHT22;3864;48.180;14.178;2024-01-27T06:55:49;2.90;99.90
7646;DHT22;3864;48.180;14.178;2024-01-27T06:58:18;2.90;99.90
7646;DHT22;3864;48.180;14.178;2024-01-27T07:00:47;2.90;99.90
7646;DHT22;3864;48.180;14.178;2024-01-27T07:03:17;2.90;99.90
7646;DHT22;3864;48.180;14.178;2024-01-27T07:05:47;2.90;99.90
7646;DHT22;3864;48.180;14.178;2024-01-27T07:08:17;3.00;99.90
7646;DHT22;3864;48.180;14.178;2024-01-27T07:10:44;3.00;99.90
7646;DHT22;3864;48.180;14.178;2024-01-27T07:13:11;3.00;99.90
7646;DHT22;3864;48.180;14.178;2024-01-27T07:15:38;2.90;99.90
7646;DHT22;3864;48.180;14.178;2024-01-27T07:18:09;2.90;99.90
7646;DHT22;3864;48.180;14.178;2024-01-27T07:20:37;2.90;99.90
7646;DHT22;3864;48.180;14.178;2024-01-27T07:23:04;2.90;99.90
7646;DHT22;3864;48.180;14.178;2024-01-27T07:25:41;2.90;99.90
7646;DHT22;3864;48.180;14.178;2024-01-27T07:28:09;2.90;99.90
7646;DHT22;3864;48.180;14.178;2024-01-27T07:30:37;2.90;99.90
7646;DHT22;3864;48.180;14.178;2024-01-27T07:33:07;3.00;99.90
7646;DHT22;3864;48.180;14.178;2024-01-27T07:35:36;3.10;99.90
7646;DHT22;3864;48.180;14.178;2024-01-27T07:38:04;3.10;99.90
7646;DHT22;3864;48.180;14.178;2024-01-27T07:40:31;3.10;99.90
7646;DHT22;3864;48.180;14.178;2024-01-27T07:42:59;3.10;99.90
7646;DHT22;3864;48.180;14.178;2024-01-27T07:45:26;3.10;99.90
7646;DHT22;3864;48.180;14.178;2024-01-27T07:48:01;3.10;99.90
7646;DHT22;3864;48.180;14.178;2024-01-27T07:50:29;3.10;99.90
7646;DHT22;3864;48.180;14.178;2024-01-27T07:53:13;3.10;99.90
7646;DHT22;3864;48.180;14.178;2024-01-27T07:55:40;3.10;99.90
7646;DHT22;3864;48.180;14.178;2024-01-27T07:58:10;3.10;99.90
7646;DHT22;3864;48.180;14.178;2024-01-27T08:00:37;3.10;99.90
7646;DHT22;3864;48.180;14.178;2024-01-27T08:03:12;3.20;99.90
7646;DHT22;3864;48.180;14.178;2024-01-27T08:05:41;3.20;99.90
7646;DHT22;3864;48.180;14.178;2024-01-27T08:08:22;3.20;99.90
7646;DHT22;3864;48.180;14.178;2024-01-27T08:10:49;3.20;99.90
7646;DHT22;3864;48.180;14.178;2024-01-27T08:13:17;3.20;99.90
7646;DHT22;3864;48.180;14.178;2024-01-27T08:15:44;3.30;99.90
7646;DHT22;3864;48.180;14.178;2024-01-27T08:18:11;3.40;99.90
7646;DHT22;3864;48.180;14.178;2024-01-27T08:20:42;3.40;99.90
7646;DHT22;3864;48.180;14.178;2024-01-27T08:23:09;3.40;99.90
7646;DHT22;3864;48.180;14.178;2024-01-27T08:25:39;3.40;99.90
7646;DHT22;3864;48.180;14.178;2024-01-27T08:28:06;3.40;99.90
7646;DHT22;3864;48.180;14.178;2024-01-27T08:30:35;3.40;99.90
7646;DHT22;3864;48.180;14.178;2024-01-27T08:33:09;3.50;99.90
7646;DHT22;3864;48.180;14.178;2024-01-27T08:35:37;3.50;99.90
7646;DHT22;3864;48.180;14.178;2024-01-27T08:38:04;3.60;99.90
7646;DHT22;3864;48.180;14.178;2024-01-27T08:40:32;3.60;99.90
7646;DHT22;3864;48.180;14.178;2024-01-27T08:43:00;3.60;99.90
7646;DHT22;3864;48.180;14.178;2024-01-27T08:45:27;3.60;99.90
7646;DHT22;3864;48.180;14.178;2024-01-27T08:47:54;3.60;99.90
7646;DHT22;3864;48.180;14.178;2024-01-27T08:50:21;3.60;99.90
7646;DHT22;3864;48.180;14.178;2024-01-27T08:52:49;3.60;99.90
7646;DHT22;3864;48.180;14.178;2024-01-27T08:55:17;3.60;99.90
7646;DHT22;3864;48.180;14.178;2024-01-27T08:57:45;3.70;99.90
7646;DHT22;3864;48.180;14.178;2024-01-27T09:00:16;3.70;99.90
7646;DHT22;3864;48.180;14.178;2024-01-27T09:02:43;3.70;99.90
7646;DHT22;3864;48.180;14.178;2024-01-27T09:05:11;3.70;99.90
7646;DHT22;3864;48.180;14.178;2024-01-27T09:07:38;3.80;99.90
7646;DHT22;3864;48.180;14.178;2024-01-27T09:10:06;3.80;99.90
7646;DHT22;3864;48.180;14.178;2024-01-27T09:12:34;3.90;99.90
7646;DHT22;3864;48.180;14.178;2024-01-27T09:15:01;3.80;99.90
7646;DHT22;3864;48.180;14.178;2024-01-27T09:17:30;3.80;99.90
7646;DHT22;3864;48.180;14.178;2024-01-27T09:19:57;3.80;99.90
7646;DHT22;3864;48.180;14.178;2024-01-27T09:22:24;3.90;99.90
7646;DHT22;3864;48.180;14.178;2024-01-27T09:24:51;3.90;99.90
7646;DHT22;3864;48.180;14.178;2024-01-27T09:27:24;3.90;99.90
7646;DHT22;3864;48.180;14.178;2024-01-27T09:29:51;3.90;99.90
7646;DHT22;3864;48.180;14.178;2024-01-27T09:32:22;3.90;99.90
7646;DHT22;3864;48.180;14.178;2024-01-27T09:34:51;3.90;99.90
7646;DHT22;3864;48.180;14.178;2024-01-27T09:37:19;3.90;99.90
7646;DHT22;3864;48.180;14.178;2024-01-27T09:39:47;3.90;99.90
7646;DHT22;3864;48.180;14.178;2024-01-27T09:42:15;4.00;99.90
7646;DHT22;3864;48.180;14.178;2024-01-27T09:44:49;4.00;99.90
7646;DHT22;3864;48.180;14.178;2024-01-27T09:47:18;4.10;99.90
7646;DHT22;3864;48.180;14.178;2024-01-27T09:49:47;4.10;99.90
7646;DHT22;3864;48.180;14.178;2024-01-27T09:52:16;4.10;99.90
7646;DHT22;3864;48.180;14.178;2024-01-27T09:54:43;4.10;99.90
7646;DHT22;3864;48.180;14.178;2024-01-27T09:57:11;4.10;99.90
7646;DHT22;3864;48.180;14.178;2024-01-27T09:59:42;4.10;99.90
7646;DHT22;3864;48.180;14.178;2024-01-27T10:02:15;4.30;99.90
7646;DHT22;3864;48.180;14.178;2024-01-27T10:04:47;4.30;99.90
7646;DHT22;3864;48.180;14.178;2024-01-27T10:07:22;4.30;99.90
7646;DHT22;3864;48.180;14.178;2024-01-27T10:09:50;4.30;99.90
7646;DHT22;3864;48.180;14.178;2024-01-27T10:12:18;4.40;99.90
7646;DHT22;3864;48.180;14.178;2024-01-27T10:14:47;4.50;99.90
7646;DHT22;3864;48.180;14.178;2024-01-27T10:17:21;4.50;99.90
7646;DHT22;3864;48.180;14.178;2024-01-27T10:19:59;4.50;99.90
7646;DHT22;3864;48.180;14.178;2024-01-27T10:22:37;4.50;99.90
7646;DHT22;3864;48.180;14.178;2024-01-27T10:25:05;4.50;99.90
7646;DHT22;3864;48.180;14.178;2024-01-27T10:27:39;4.50;99.90
7646;DHT22;3864;48.180;14.178;2024-01-27T10:30:16;4.50;99.90
7646;DHT22;3864;48.180;14.178;2024-01-27T10:32:56;4.50;99.90
7646;DHT22;3864;48.180;14.178;2024-01-27T10:35:23;4.60;99.90
7646;DHT22;3864;48.180;14.178;2024-01-27T10:37:53;4.70;99.90
7646;DHT22;3864;48.180;14.178;2024-01-27T10:40:28;4.70;99.90
7646;DHT22;3864;48.180;14.178;2024-01-27T10:43:04;4.70;99.90
7646;DHT22;3864;48.180;14.178;2024-01-27T10:45:36;4.70;99.90
7646;DHT22;3864;48.180;14.178;2024-01-27T10:48:04;4.80;99.90
7646;DHT22;3864;48.180;14.178;2024-01-27T10:50:35;4.80;99.90
7646;DHT22;3864;48.180;14.178;2024-01-27T10:53:08;4.80;99.90
7646;DHT22;3864;48.180;14.178;2024-01-27T10:55:37;4.80;99.90
7646;DHT22;3864;48.180;14.178;2024-01-27T10:58:05;4.90;99.90
7646;DHT22;3864;48.180;14.178;2024-01-27T11:00:32;5.00;99.90
7646;DHT22;3864;48.180;14.178;2024-01-27T11:03:02;4.90;99.90
7646;DHT22;3864;48.180;14.178;2024-01-27T11:05:32;4.90;99.90
7646;DHT22;3864;48.180;14.178;2024-01-27T11:08:18;4.80;99.90
7646;DHT22;3864;48.180;14.178;2024-01-27T11:10:46;4.80;99.90
7646;DHT22;3864;48.180;14.178;2024-01-27T11:13:13;4.70;99.90
7646;DHT22;3864;48.180;14.178;2024-01-27T11:15:51;4.70;99.90
7646;DHT22;3864;48.180;14.178;2024-01-27T11:18:19;4.70;99.90
7646;DHT22;3864;48.180;14.178;2024-01-27T11:20:46;4.80;99.90
7646;DHT22;3864;48.180;14.178;2024-01-27T11:23:14;4.80;99.90
7646;DHT22;3864;48.180;14.178;2024-01-27T11:25:45;4.80;99.90
7646;DHT22;3864;48.180;14.178;2024-01-27T11:28:16;4.80;99.90
7646;DHT22;3864;48.180;14.178;2024-01-27T11:30:46;4.80;99.90
7646;DHT22;3864;48.180;14.178;2024-01-27T11:33:17;4.90;99.90
7646;DHT22;3864;48.180;14.178;2024-01-27T11:35:44;5.00;99.90
7646;DHT22;3864;48.180;14.178;2024-01-27T11:38:13;5.10;99.90
7646;DHT22;3864;48.180;14.178;2024-01-27T11:41:00;5.20;99.90
7646;DHT22;3864;48.180;14.178;2024-01-27T11:43:28;5.20;99.90
7646;DHT22;3864;48.180;14.178;2024-01-27T11:45:56;5.20;99.90
7646;DHT22;3864;48.180;14.178;2024-01-27T11:48:25;5.30;99.90
7646;DHT22;3864;48.180;14.178;2024-01-27T11:51:03;5.20;99.90
7646;DHT22;3864;48.180;14.178;2024-01-27T11:53:31;5.20;99.90
7646;DHT22;3864;48.180;14.178;2024-01-27T11:56:00;5.20;99.90
7646;DHT22;3864;48.180;14.178;2024-01-27T11:58:30;5.10;99.90
7646;DHT22;3864;48.180;14.178;2024-01-27T12:00:57;5.00;99.90
7646;DHT22;3864;48.180;14.178;2024-01-27T12:03:25;5.10;99.90
7646;DHT22;3864;48.180;14.178;2024-01-27T12:05:53;5.10;99.90
7646;DHT22;3864;48.180;14.178;2024-01-27T12:08:20;5.10;99.90
7646;DHT22;3864;48.180;14.178;2024-01-27T12:10:47;5.20;99.90
7646;DHT22;3864;48.180;14.178;2024-01-27T12:13:16;5.30;99.90
7646;DHT22;3864;48.180;14.178;2024-01-27T12:15:43;5.30;99.90
7646;DHT22;3864;48.180;14.178;2024-01-27T12:18:11;5.30;99.90
7646;DHT22;3864;48.180;14.178;2024-01-27T12:20:39;5.30;99.90
7646;DHT22;3864;48.180;14.178;2024-01-27T12:23:06;5.30;99.90
7646;DHT22;3864;48.180;14.178;2024-01-27T12:25:33;5.40;99.90
7646;DHT22;3864;48.180;14.178;2024-01-27T12:28:02;5.50;99.90
7646;DHT22;3864;48.180;14.178;2024-01-27T12:30:31;5.50;99.90
7646;DHT22;3864;48.180;14.178;2024-01-27T12:32:59;5.50;99.90
7646;DHT22;3864;48.180;14.178;2024-01-27T12:35:27;5.40;99.90
7646;DHT22;3864;48.180;14.178;2024-01-27T12:37:55;5.40;99.90
7646;DHT22;3864;48.180;14.178;2024-01-27T12:40:23;5.40;99.90
7646;DHT22;3864;48.180;14.178;2024-01-27T12:42:50;5.40;99.90
7646;DHT22;3864;48.180;14.178;2024-01-27T12:45:16;5.40;99.90
7646;DHT22;3864;48.180;14.178;2024-01-27T12:47:45;5.40;99.90
7646;DHT22;3864;48.180;14.178;2024-01-27T12:50:13;5.40;99.90
7646;DHT22;3864;48.180;14.178;2024-01-27T12:52:43;5.50;99.90
7646;DHT22;3864;48.180;14.178;2024-01-27T12:55:20;5.40;99.90
7646;DHT22;3864;48.180;14.178;2024-01-27T12:57:53;5.40;99.90
7646;DHT22;3864;48.180;14.178;2024-01-27T13:00:30;5.50;99.90
7646;DHT22;3864;48.180;14.178;2024-01-27T13:03:04;5.50;99.90
7646;DHT22;3864;48.180;14.178;2024-01-27T13:05:31;5.60;99.90
7646;DHT22;3864;48.180;14.178;2024-01-27T13:08:05;5.70;99.90
7646;DHT22;3864;48.180;14.178;2024-01-27T13:10:37;5.70;99.90
7646;DHT22;3864;48.180;14.178;2024-01-27T13:13:10;5.70;99.90
7646;DHT22;3864;48.180;14.178;2024-01-27T13:15:41;5.60;99.90
7646;DHT22;3864;48.180;14.178;2024-01-27T13:18:11;5.60;99.90
7646;DHT22;3864;48.180;14.178;2024-01-27T13:20:46;5.60;99.90
7646;DHT22;3864;48.180;14.178;2024-01-27T13:23:17;5.60;99.90
7646;DHT22;3864;48.180;14.178;2024-01-27T13:25:44;5.70;99.90
7646;DHT22;3864;48.180;14.178;2024-01-27T13:28:12;5.60;99.90
7646;DHT22;3864;48.180;14.178;2024-01-27T13:30:39;5.60;99.90
7646;DHT22;3864;48.180;14.178;2024-01-27T13:33:07;5.70;99.90
7646;DHT22;3864;48.180;14.178;2024-01-27T13:35:38;5.60;99.90
7646;DHT22;3864;48.180;14.178;2024-01-27T13:38:08;5.60;99.90
7646;DHT22;3864;48.180;14.178;2024-01-27T13:40:38;5.60;99.90
7646;DHT22;3864;48.180;14.178;2024-01-27T13:43:06;5.70;99.90
7646;DHT22;3864;48.180;14.178;2024-01-27T13:45:33;5.70;99.90
7646;DHT22;3864;48.180;14.178;2024-01-27T13:48:00;5.70;99.90
7646;DHT22;3864;48.180;14.178;2024-01-27T13:50:27;5.70;99.90
7646;DHT22;3864;48.180;14.178;2024-01-27T13:52:58;5.70;99.90
7646;DHT22;3864;48.180;14.178;2024-01-27T13:55:25;5.70;99.90
7646;DHT22;3864;48.180;14.178;2024-01-27T13:57:53;5.70;99.90
7646;DHT22;3864;48.180;14.178;2024-01-27T14:00:20;5.70;99.90
7646;DHT22;3864;48.180;14.178;2024-01-27T14:02:48;5.70;99.90
7646;DHT22;3864;48.180;14.178;2024-01-27T14:05:15;5.70;99.90
7646;DHT22;3864;48.180;14.178;2024-01-27T14:07:45;5.70;99.90
7646;DHT22;3864;48.180;14.178;2024-01-27T14:10:21;5.70;99.90
7646;DHT22;3864;48.180;14.178;2024-01-27T14:12:48;5.70;99.90
7646;DHT22;3864;48.180;14.178;2024-01-27T14:15:15;5.60;99.90
7646;DHT22;3864;48.180;14.178;2024-01-27T14:17:43;5.60;99.90
7646;DHT22;3864;48.180;14.178;2024-01-27T14:20:11;5.60;99.90
7646;DHT22;3864;48.180;14.178;2024-01-27T14:22:39;5.60;99.90
7646;DHT22;3864;48.180;14.178;2024-01-27T14:25:06;5.60;99.90
7646;DHT22;3864;48.180;14.178;2024-01-27T14:27:35;5.70;99.90
7646;DHT22;3864;48.180;14.178;2024-01-27T14:30:02;5.70;99.90
7646;DHT22;3864;48.180;14.178;2024-01-27T14:32:29;5.70;99.90
7646;DHT22;3864;48.180;14.178;2024-01-27T14:34:56;5.60;99.90
7646;DHT22;3864;48.180;14.178;2024-01-27T14:37:23;5.60;99.90
7646;DHT22;3864;48.180;14.178;2024-01-27T14:39:51;5.60;99.90
7646;DHT22;3864;48.180;14.178;2024-01-27T14:42:18;5.60;99.90
7646;DHT22;3864;48.180;14.178;2024-01-27T14:44:46;5.60;99.90
7646;DHT22;3864;48.180;14.178;2024-01-27T14:47:15;5.60;99.90
7646;DHT22;3864;48.180;14.178;2024-01-27T14:49:42;5.50;99.90
7646;DHT22;3864;48.180;14.178;2024-01-27T14:52:11;5.60;99.90
7646;DHT22;3864;48.180;14.178;2024-01-27T14:54:38;5.50;99.90
7646;DHT22;3864;48.180;14.178;2024-01-27T14:57:06;5.50;99.90
7646;DHT22;3864;48.180;14.178;2024-01-27T14:59:34;5.40;99.90
7646;DHT22;3864;48.180;14.178;2024-01-27T15:02:06;5.40;99.90
7646;DHT22;3864;48.180;14.178;2024-01-27T15:04:33;5.40;99.90
7646;DHT22;3864;48.180;14.178;2024-01-27T15:07:00;5.40;99.90
7646;DHT22;3864;48.180;14.178;2024-01-27T15:09:28;5.30;99.90
7646;DHT22;3864;48.180;14.178;2024-01-27T15:11:55;5.30;99.90
7646;DHT22;3864;48.180;14.178;2024-01-27T15:14:22;5.20;99.90
7646;DHT22;3864;48.180;14.178;2024-01-27T15:16:49;5.20;99.90
7646;DHT22;3864;48.180;14.178;2024-01-27T15:19:17;5.20;99.90
7646;DHT22;3864;48.180;14.178;2024-01-27T15:21:44;5.20;99.90
7646;DHT22;3864;48.180;14.178;2024-01-27T15:24:12;5.10;99.90
7646;DHT22;3864;48.180;14.178;2024-01-27T15:26:39;5.00;99.90
7646;DHT22;3864;48.180;14.178;2024-01-27T15:29:06;4.90;99.90
7646;DHT22;3864;48.180;14.178;2024-01-27T15:31:32;4.80;99.90
7646;DHT22;3864;48.180;14.178;2024-01-27T15:34:00;4.80;99.90
7646;DHT22;3864;48.180;14.178;2024-01-27T15:36:29;4.80;99.90
7646;DHT22;3864;48.180;14.178;2024-01-27T15:38:57;4.60;99.90
7646;DHT22;3864;48.180;14.178;2024-01-27T15:41:24;4.50;99.90
7646;DHT22;3864;48.180;14.178;2024-01-27T15:43:51;4.40;99.90
7646;DHT22;3864;48.180;14.178;2024-01-27T15:46:18;4.30;99.90
7646;DHT22;3864;48.180;14.178;2024-01-27T15:48:45;4.20;99.90
7646;DHT22;3864;48.180;14.178;2024-01-27T15:51:11;4.00;99.90
7646;DHT22;3864;48.180;14.178;2024-01-27T15:53:40;3.80;99.90
7646;DHT22;3864;48.180;14.178;2024-01-27T15:56:07;3.70;99.90
7646;DHT22;3864;48.180;14.178;2024-01-27T15:58:34;3.50;99.90
7646;DHT22;3864;48.180;14.178;2024-01-27T16:01:01;3.40;99.90
7646;DHT22;3864;48.180;14.178;2024-01-27T16:03:28;3.20;99.90
7646;DHT22;3864;48.180;14.178;2024-01-27T16:05:55;3.00;99.90
7646;DHT22;3864;48.180;14.178;2024-01-27T16:08:23;2.90;99.90
7646;DHT22;3864;48.180;14.178;2024-01-27T16:10:52;2.70;99.90
7646;DHT22;3864;48.180;14.178;2024-01-27T16:13:20;2.50;99.90
7646;DHT22;3864;48.180;14.178;2024-01-27T16:15:47;2.20;99.90
7646;DHT22;3864;48.180;14.178;2024-01-27T16:18:14;2.00;99.90
7646;DHT22;3864;48.180;14.178;2024-01-27T16:20:42;1.80;99.90